sensor_id;sensor_type;location;lat;lon;timestamp;P1;durP1;ratioP1;P2;durP2;ratioP2
11506;SDS011;5810;51.180;6.646;2023-08-20T00:01:56;3.75;;;2.00;;
11506;SDS011;5810;51.180;6.646;2023-08-20T00:04:24;1.58;;;1.48;;
11506;SDS011;5810;51.180;6.646;2023-08-20T00:06:51;1.02;;;1.02;;
11506;SDS011;5810;51.180;6.646;2023-08-20T00:09:17;1.85;;;1.20;;
11506;SDS011;5810;51.180;6.646;2023-08-20T00:11:43;1.88;;;1.63;;
11506;SDS011;5810;51.180;6.646;2023-08-20T00:14:16;1.20;;;1.08;;
11506;SDS011;5810;51.180;6.646;2023-08-20T00:16:42;1.23;;;1.15;;
11506;SDS011;5810;51.180;6.646;2023-08-20T00:19:09;1.48;;;1.17;;
11506;SDS011;5810;51.180;6.646;2023-08-20T00:21:39;1.63;;;1.52;;
11506;SDS011;5810;51.180;6.646;2023-08-20T00:24:06;2.88;;;1.65;;
11506;SDS011;5810;51.180;6.646;2023-08-20T00:26:32;1.48;;;1.38;;
11506;SDS011;5810;51.180;6.646;2023-08-20T00:28:59;2.08;;;1.15;;
11506;SDS011;5810;51.180;6.646;2023-08-20T00:31:25;2.47;;;1.42;;
11506;SDS011;5810;51.180;6.646;2023-08-20T00:33:51;0.98;;;0.98;;
11506;SDS011;5810;51.180;6.646;2023-08-20T00:36:17;1.10;;;1.10;;
11506;SDS011;5810;51.180;6.646;2023-08-20T00:38:42;0.90;;;0.90;;
11506;SDS011;5810;51.180;6.646;2023-08-20T00:41:08;1.33;;;1.25;;
11506;SDS011;5810;51.180;6.646;2023-08-20T00:43:34;1.20;;;1.15;;
11506;SDS011;5810;51.180;6.646;2023-08-20T00:46:00;1.13;;;1.13;;
11506;SDS011;5810;51.180;6.646;2023-08-20T00:48:27;1.92;;;1.83;;
11506;SDS011;5810;51.180;6.646;2023-08-20T00:50:53;1.60;;;1.50;;
11506;SDS011;5810;51.180;6.646;2023-08-20T00:53:19;1.77;;;1.67;;
11506;SDS011;5810;51.180;6.646;2023-08-20T00:55:45;1.73;;;1.17;;
11506;SDS011;5810;51.180;6.646;2023-08-20T00:58:11;0.93;;;0.93;;
11506;SDS011;5810;51.180;6.646;2023-08-20T01:00:37;4.38;;;1.67;;
11506;SDS011;5810;51.180;6.646;2023-08-20T01:03:03;3.28;;;1.20;;
11506;SDS011;5810;51.180;6.646;2023-08-20T01:05:31;1.27;;;1.10;;
11506;SDS011;5810;51.180;6.646;2023-08-20T01:08:04;1.58;;;1.48;;
11506;SDS011;5810;51.180;6.646;2023-08-20T01:10:38;1.90;;;1.80;;
11506;SDS011;5810;51.180;6.646;2023-08-20T01:13:06;1.15;;;1.15;;
11506;SDS011;5810;51.180;6.646;2023-08-20T01:15:33;1.55;;;1.52;;
11506;SDS011;5810;51.180;6.646;2023-08-20T01:17:59;2.17;;;1.30;;
11506;SDS011;5810;51.180;6.646;2023-08-20T01:20:26;1.25;;;1.15;;
11506;SDS011;5810;51.180;6.646;2023-08-20T01:23:02;1.50;;;1.40;;
11506;SDS011;5810;51.180;6.646;2023-08-20T01:30:31;1.60;;;1.25;;
11506;SDS011;5810;51.180;6.646;2023-08-20T01:32:58;1.80;;;1.27;;
11506;SDS011;5810;51.180;6.646;2023-08-20T01:35:25;1.58;;;1.48;;
11506;SDS011;5810;51.180;6.646;2023-08-20T01:37:51;2.80;;;1.35;;
11506;SDS011;5810;51.180;6.646;2023-08-20T01:40:17;1.48;;;1.27;;
11506;SDS011;5810;51.180;6.646;2023-08-20T01:42:43;1.13;;;1.13;;
11506;SDS011;5810;51.180;6.646;2023-08-20T01:45:09;1.40;;;1.30;;
11506;SDS011;5810;51.180;6.646;2023-08-20T01:47:35;1.08;;;1.08;;
11506;SDS011;5810;51.180;6.646;2023-08-20T01:50:02;1.23;;;1.13;;
11506;SDS011;5810;51.180;6.646;2023-08-20T01:52:28;1.02;;;1.02;;
11506;SDS011;5810;51.180;6.646;2023-08-20T01:54:54;1.58;;;1.48;;
11506;SDS011;5810;51.180;6.646;2023-08-20T01:57:20;0.93;;;0.93;;
11506;SDS011;5810;51.180;6.646;2023-08-20T01:59:49;1.10;;;1.00;;
11506;SDS011;5810;51.180;6.646;2023-08-20T02:02:16;1.00;;;1.00;;
11506;SDS011;5810;51.180;6.646;2023-08-20T02:04:42;2.05;;;1.73;;
11506;SDS011;5810;51.180;6.646;2023-08-20T02:07:08;1.20;;;1.10;;
11506;SDS011;5810;51.180;6.646;2023-08-20T02:09:34;1.23;;;1.10;;
11506;SDS011;5810;51.180;6.646;2023-08-20T02:12:00;0.90;;;0.90;;
11506;SDS011;5810;51.180;6.646;2023-08-20T02:14:26;0.70;;;0.70;;
11506;SDS011;5810;51.180;6.646;2023-08-20T02:16:53;1.58;;;1.23;;
11506;SDS011;5810;51.180;6.646;2023-08-20T02:19:19;1.13;;;1.13;;
11506;SDS011;5810;51.180;6.646;2023-08-20T02:21:45;1.10;;;1.10;;
11506;SDS011;5810;51.180;6.646;2023-08-20T02:24:12;1.08;;;1.08;;
11506;SDS011;5810;51.180;6.646;2023-08-20T02:26:38;1.05;;;1.05;;
11506;SDS011;5810;51.180;6.646;2023-08-20T02:29:04;2.60;;;1.13;;
11506;SDS011;5810;51.180;6.646;2023-08-20T02:31:30;1.27;;;1.20;;
11506;SDS011;5810;51.180;6.646;2023-08-20T02:33:56;1.20;;;1.20;;
11506;SDS011;5810;51.180;6.646;2023-08-20T02:36:22;4.38;;;1.45;;
11506;SDS011;5810;51.180;6.646;2023-08-20T02:38:49;2.10;;;1.48;;
11506;SDS011;5810;51.180;6.646;2023-08-20T02:41:15;1.13;;;1.13;;
11506;SDS011;5810;51.180;6.646;2023-08-20T02:43:41;0.80;;;0.80;;
11506;SDS011;5810;51.180;6.646;2023-08-20T02:46:07;1.05;;;1.05;;
11506;SDS011;5810;51.180;6.646;2023-08-20T02:48:33;3.63;;;1.40;;
11506;SDS011;5810;51.180;6.646;2023-08-20T02:50:59;1.35;;;1.30;;
11506;SDS011;5810;51.180;6.646;2023-08-20T02:53:25;1.52;;;1.42;;
11506;SDS011;5810;51.180;6.646;2023-08-20T02:55:51;2.85;;;1.33;;
11506;SDS011;5810;51.180;6.646;2023-08-20T02:58:17;1.50;;;1.40;;
11506;SDS011;5810;51.180;6.646;2023-08-20T03:00:43;0.95;;;0.95;;
11506;SDS011;5810;51.180;6.646;2023-08-20T03:03:10;1.63;;;1.38;;
11506;SDS011;5810;51.180;6.646;2023-08-20T03:05:36;1.95;;;1.27;;
11506;SDS011;5810;51.180;6.646;2023-08-20T03:08:02;2.15;;;1.95;;
11506;SDS011;5810;51.180;6.646;2023-08-20T03:10:31;1.05;;;1.00;;
11506;SDS011;5810;51.180;6.646;2023-08-20T03:12:58;1.00;;;1.00;;
11506;SDS011;5810;51.180;6.646;2023-08-20T03:15:24;1.23;;;1.23;;
11506;SDS011;5810;51.180;6.646;2023-08-20T03:17:50;1.10;;;1.10;;
11506;SDS011;5810;51.180;6.646;2023-08-20T03:20:16;1.02;;;1.02;;
11506;SDS011;5810;51.180;6.646;2023-08-20T03:22:42;1.60;;;1.50;;
11506;SDS011;5810;51.180;6.646;2023-08-20T03:25:08;1.05;;;1.05;;
11506;SDS011;5810;51.180;6.646;2023-08-20T03:27:34;1.55;;;1.48;;
11506;SDS011;5810;51.180;6.646;2023-08-20T03:30:00;1.27;;;1.10;;
11506;SDS011;5810;51.180;6.646;2023-08-20T03:32:26;1.00;;;0.98;;
11506;SDS011;5810;51.180;6.646;2023-08-20T03:34:52;0.82;;;0.82;;
11506;SDS011;5810;51.180;6.646;2023-08-20T03:37:19;1.05;;;1.05;;
11506;SDS011;5810;51.180;6.646;2023-08-20T03:39:45;1.08;;;1.08;;
11506;SDS011;5810;51.180;6.646;2023-08-20T03:42:11;2.42;;;1.98;;
11506;SDS011;5810;51.180;6.646;2023-08-20T03:44:37;1.63;;;1.52;;
11506;SDS011;5810;51.180;6.646;2023-08-20T03:47:03;1.65;;;1.38;;
11506;SDS011;5810;51.180;6.646;2023-08-20T03:49:29;1.10;;;1.10;;
11506;SDS011;5810;51.180;6.646;2023-08-20T03:51:55;1.75;;;1.65;;
11506;SDS011;5810;51.180;6.646;2023-08-20T03:54:21;0.90;;;0.90;;
11506;SDS011;5810;51.180;6.646;2023-08-20T03:56:47;1.05;;;1.02;;
11506;SDS011;5810;51.180;6.646;2023-08-20T03:59:12;1.65;;;1.55;;
11506;SDS011;5810;51.180;6.646;2023-08-20T04:01:39;0.93;;;0.93;;
11506;SDS011;5810;51.180;6.646;2023-08-20T04:04:05;1.88;;;1.70;;
11506;SDS011;5810;51.180;6.646;2023-08-20T04:06:31;1.02;;;1.02;;
11506;SDS011;5810;51.180;6.646;2023-08-20T04:08:58;1.88;;;1.73;;
11506;SDS011;5810;51.180;6.646;2023-08-20T04:11:24;1.48;;;1.23;;
11506;SDS011;5810;51.180;6.646;2023-08-20T04:13:50;1.23;;;1.13;;
11506;SDS011;5810;51.180;6.646;2023-08-20T04:16:16;1.50;;;1.40;;
11506;SDS011;5810;51.180;6.646;2023-08-20T04:18:42;1.63;;;1.52;;
11506;SDS011;5810;51.180;6.646;2023-08-20T04:21:08;1.05;;;1.05;;
11506;SDS011;5810;51.180;6.646;2023-08-20T04:23:34;2.05;;;1.63;;
11506;SDS011;5810;51.180;6.646;2023-08-20T04:26:00;1.17;;;1.17;;
11506;SDS011;5810;51.180;6.646;2023-08-20T04:28:26;1.85;;;1.17;;
11506;SDS011;5810;51.180;6.646;2023-08-20T04:30:53;1.40;;;1.33;;
11506;SDS011;5810;51.180;6.646;2023-08-20T04:33:19;1.63;;;1.23;;
11506;SDS011;5810;51.180;6.646;2023-08-20T04:35:45;3.60;;;2.15;;
11506;SDS011;5810;51.180;6.646;2023-08-20T04:38:11;1.58;;;1.48;;
11506;SDS011;5810;51.180;6.646;2023-08-20T04:40:37;1.48;;;1.38;;
11506;SDS011;5810;51.180;6.646;2023-08-20T04:43:03;1.10;;;1.10;;
11506;SDS011;5810;51.180;6.646;2023-08-20T04:45:29;1.45;;;1.35;;
11506;SDS011;5810;51.180;6.646;2023-08-20T04:47:55;2.00;;;1.25;;
11506;SDS011;5810;51.180;6.646;2023-08-20T04:50:21;1.23;;;1.13;;
11506;SDS011;5810;51.180;6.646;2023-08-20T04:52:47;1.33;;;1.23;;
11506;SDS011;5810;51.180;6.646;2023-08-20T04:55:13;3.65;;;1.38;;
11506;SDS011;5810;51.180;6.646;2023-08-20T04:57:40;2.08;;;1.17;;
11506;SDS011;5810;51.180;6.646;2023-08-20T05:00:06;1.48;;;1.33;;
11506;SDS011;5810;51.180;6.646;2023-08-20T05:02:34;1.67;;;1.58;;
11506;SDS011;5810;51.180;6.646;2023-08-20T05:05:01;1.15;;;1.05;;
11506;SDS011;5810;51.180;6.646;2023-08-20T05:07:27;1.55;;;1.45;;
11506;SDS011;5810;51.180;6.646;2023-08-20T05:09:53;0.93;;;0.93;;
11506;SDS011;5810;51.180;6.646;2023-08-20T05:12:19;1.23;;;1.23;;
11506;SDS011;5810;51.180;6.646;2023-08-20T05:14:45;1.35;;;1.27;;
11506;SDS011;5810;51.180;6.646;2023-08-20T05:17:11;4.53;;;1.35;;
11506;SDS011;5810;51.180;6.646;2023-08-20T05:19:37;1.92;;;1.70;;
11506;SDS011;5810;51.180;6.646;2023-08-20T05:22:03;3.17;;;1.83;;
11506;SDS011;5810;51.180;6.646;2023-08-20T05:24:29;1.50;;;1.40;;
11506;SDS011;5810;51.180;6.646;2023-08-20T05:27:05;2.17;;;1.50;;
11506;SDS011;5810;51.180;6.646;2023-08-20T05:29:31;1.25;;;1.15;;
11506;SDS011;5810;51.180;6.646;2023-08-20T05:31:58;1.10;;;1.10;;
11506;SDS011;5810;51.180;6.646;2023-08-20T05:34:24;2.55;;;1.80;;
11506;SDS011;5810;51.180;6.646;2023-08-20T05:36:50;0.88;;;0.88;;
11506;SDS011;5810;51.180;6.646;2023-08-20T05:39:16;0.85;;;0.85;;
11506;SDS011;5810;51.180;6.646;2023-08-20T05:41:42;1.30;;;1.23;;
11506;SDS011;5810;51.180;6.646;2023-08-20T05:44:08;1.60;;;1.25;;
11506;SDS011;5810;51.180;6.646;2023-08-20T05:46:34;1.00;;;1.00;;
11506;SDS011;5810;51.180;6.646;2023-08-20T05:49:00;1.00;;;1.00;;
11506;SDS011;5810;51.180;6.646;2023-08-20T05:51:26;1.02;;;1.02;;
11506;SDS011;5810;51.180;6.646;2023-08-20T05:53:52;2.67;;;1.48;;
11506;SDS011;5810;51.180;6.646;2023-08-20T05:56:18;1.08;;;1.08;;
11506;SDS011;5810;51.180;6.646;2023-08-20T05:58:44;0.80;;;0.80;;
11506;SDS011;5810;51.180;6.646;2023-08-20T06:01:10;0.95;;;0.95;;
11506;SDS011;5810;51.180;6.646;2023-08-20T06:03:36;1.15;;;1.02;;
11506;SDS011;5810;51.180;6.646;2023-08-20T06:06:02;1.67;;;1.48;;
11506;SDS011;5810;51.180;6.646;2023-08-20T06:08:28;1.17;;;1.17;;
11506;SDS011;5810;51.180;6.646;2023-08-20T06:10:54;2.60;;;1.50;;
11506;SDS011;5810;51.180;6.646;2023-08-20T06:13:20;1.02;;;1.02;;
11506;SDS011;5810;51.180;6.646;2023-08-20T06:15:46;6.00;;;1.55;;
11506;SDS011;5810;51.180;6.646;2023-08-20T06:18:12;1.17;;;1.10;;
11506;SDS011;5810;51.180;6.646;2023-08-20T06:20:38;1.35;;;1.30;;
11506;SDS011;5810;51.180;6.646;2023-08-20T06:23:04;1.00;;;1.00;;
11506;SDS011;5810;51.180;6.646;2023-08-20T06:25:30;1.00;;;1.00;;
11506;SDS011;5810;51.180;6.646;2023-08-20T06:27:56;1.23;;;1.23;;
11506;SDS011;5810;51.180;6.646;2023-08-20T06:30:22;0.93;;;0.93;;
11506;SDS011;5810;51.180;6.646;2023-08-20T06:32:48;1.05;;;1.05;;
11506;SDS011;5810;51.180;6.646;2023-08-20T06:35:14;0.82;;;0.82;;
11506;SDS011;5810;51.180;6.646;2023-08-20T06:37:40;1.55;;;1.45;;
11506;SDS011;5810;51.180;6.646;2023-08-20T06:40:06;0.95;;;0.95;;
11506;SDS011;5810;51.180;6.646;2023-08-20T06:42:32;1.75;;;1.25;;
11506;SDS011;5810;51.180;6.646;2023-08-20T06:44:59;1.00;;;1.00;;
11506;SDS011;5810;51.180;6.646;2023-08-20T06:47:25;1.02;;;1.02;;
11506;SDS011;5810;51.180;6.646;2023-08-20T06:49:51;1.45;;;1.35;;
11506;SDS011;5810;51.180;6.646;2023-08-20T06:52:17;1.10;;;1.10;;
11506;SDS011;5810;51.180;6.646;2023-08-20T06:54:44;1.02;;;1.02;;
11506;SDS011;5810;51.180;6.646;2023-08-20T06:57:10;1.00;;;1.00;;
11506;SDS011;5810;51.180;6.646;2023-08-20T06:59:36;0.93;;;0.93;;
11506;SDS011;5810;51.180;6.646;2023-08-20T07:02:02;0.80;;;0.80;;
11506;SDS011;5810;51.180;6.646;2023-08-20T07:04:31;2.72;;;1.20;;
11506;SDS011;5810;51.180;6.646;2023-08-20T07:06:58;0.95;;;0.90;;
11506;SDS011;5810;51.180;6.646;2023-08-20T07:09:24;0.70;;;0.70;;
11506;SDS011;5810;51.180;6.646;2023-08-20T07:11:50;1.00;;;1.00;;
11506;SDS011;5810;51.180;6.646;2023-08-20T07:14:16;1.20;;;1.20;;
11506;SDS011;5810;51.180;6.646;2023-08-20T07:16:42;0.77;;;0.77;;
11506;SDS011;5810;51.180;6.646;2023-08-20T07:19:08;1.13;;;1.02;;
11506;SDS011;5810;51.180;6.646;2023-08-20T07:21:34;1.58;;;1.48;;
11506;SDS011;5810;51.180;6.646;2023-08-20T07:24:00;1.15;;;1.15;;
11506;SDS011;5810;51.180;6.646;2023-08-20T07:26:26;1.38;;;1.27;;
11506;SDS011;5810;51.180;6.646;2023-08-20T07:28:52;0.80;;;0.80;;
11506;SDS011;5810;51.180;6.646;2023-08-20T07:31:21;1.00;;;1.00;;
11506;SDS011;5810;51.180;6.646;2023-08-20T07:33:48;1.08;;;1.08;;
11506;SDS011;5810;51.180;6.646;2023-08-20T07:36:14;0.93;;;0.88;;
11506;SDS011;5810;51.180;6.646;2023-08-20T07:38:40;2.47;;;1.13;;
11506;SDS011;5810;51.180;6.646;2023-08-20T07:41:07;1.02;;;1.02;;
11506;SDS011;5810;51.180;6.646;2023-08-20T07:43:34;1.00;;;0.95;;
11506;SDS011;5810;51.180;6.646;2023-08-20T07:46:00;1.38;;;1.38;;
11506;SDS011;5810;51.180;6.646;2023-08-20T07:48:26;0.98;;;0.98;;
11506;SDS011;5810;51.180;6.646;2023-08-20T07:50:52;2.28;;;1.20;;
11506;SDS011;5810;51.180;6.646;2023-08-20T07:53:18;2.38;;;1.45;;
11506;SDS011;5810;51.180;6.646;2023-08-20T07:55:44;1.75;;;1.10;;
11506;SDS011;5810;51.180;6.646;2023-08-20T07:58:10;0.98;;;0.98;;
11506;SDS011;5810;51.180;6.646;2023-08-20T08:00:36;1.13;;;1.02;;
11506;SDS011;5810;51.180;6.646;2023-08-20T08:03:02;1.05;;;1.05;;
11506;SDS011;5810;51.180;6.646;2023-08-20T08:05:28;1.77;;;1.35;;
11506;SDS011;5810;51.180;6.646;2023-08-20T08:07:54;0.85;;;0.85;;
11506;SDS011;5810;51.180;6.646;2023-08-20T08:10:20;0.90;;;0.90;;
11506;SDS011;5810;51.180;6.646;2023-08-20T08:12:46;5.68;;;1.80;;
11506;SDS011;5810;51.180;6.646;2023-08-20T08:15:12;1.13;;;1.13;;
11506;SDS011;5810;51.180;6.646;2023-08-20T08:17:38;1.23;;;1.23;;
11506;SDS011;5810;51.180;6.646;2023-08-20T08:20:05;1.42;;;1.33;;
11506;SDS011;5810;51.180;6.646;2023-08-20T08:22:31;0.82;;;0.82;;
11506;SDS011;5810;51.180;6.646;2023-08-20T08:24:57;2.65;;;1.50;;
11506;SDS011;5810;51.180;6.646;2023-08-20T08:27:23;1.85;;;0.90;;
11506;SDS011;5810;51.180;6.646;2023-08-20T08:29:50;1.40;;;1.30;;
11506;SDS011;5810;51.180;6.646;2023-08-20T08:32:16;0.90;;;0.90;;
11506;SDS011;5810;51.180;6.646;2023-08-20T08:34:42;1.60;;;1.50;;
11506;SDS011;5810;51.180;6.646;2023-08-20T08:37:08;0.90;;;0.90;;
11506;SDS011;5810;51.180;6.646;2023-08-20T08:39:34;1.05;;;1.05;;
11506;SDS011;5810;51.180;6.646;2023-08-20T08:42:04;1.13;;;1.13;;
11506;SDS011;5810;51.180;6.646;2023-08-20T08:44:32;1.02;;;1.02;;
11506;SDS011;5810;51.180;6.646;2023-08-20T08:46:58;1.83;;;1.10;;
11506;SDS011;5810;51.180;6.646;2023-08-20T08:49:24;1.20;;;1.10;;
11506;SDS011;5810;51.180;6.646;2023-08-20T08:51:56;0.93;;;0.93;;
11506;SDS011;5810;51.180;6.646;2023-08-20T08:54:23;1.20;;;1.10;;
11506;SDS011;5810;51.180;6.646;2023-08-20T08:56:49;0.93;;;0.93;;
11506;SDS011;5810;51.180;6.646;2023-08-20T08:59:15;1.05;;;1.05;;
11506;SDS011;5810;51.180;6.646;2023-08-20T09:01:41;1.90;;;1.80;;
11506;SDS011;5810;51.180;6.646;2023-08-20T09:04:07;1.42;;;1.33;;
11506;SDS011;5810;51.180;6.646;2023-08-20T09:06:46;0.80;;;0.80;;
11506;SDS011;5810;51.180;6.646;2023-08-20T09:09:12;1.20;;;1.10;;
11506;SDS011;5810;51.180;6.646;2023-08-20T09:11:38;0.88;;;0.88;;
11506;SDS011;5810;51.180;6.646;2023-08-20T09:14:04;0.73;;;0.73;;
11506;SDS011;5810;51.180;6.646;2023-08-20T09:16:30;0.85;;;0.85;;
11506;SDS011;5810;51.180;6.646;2023-08-20T09:18:58;0.93;;;0.93;;
11506;SDS011;5810;51.180;6.646;2023-08-20T09:21:27;1.85;;;1.73;;
11506;SDS011;5810;51.180;6.646;2023-08-20T09:23:54;1.55;;;1.45;;
11506;SDS011;5810;51.180;6.646;2023-08-20T09:26:21;0.80;;;0.80;;
11506;SDS011;5810;51.180;6.646;2023-08-20T09:28:47;0.70;;;0.70;;
11506;SDS011;5810;51.180;6.646;2023-08-20T09:31:13;0.80;;;0.80;;
11506;SDS011;5810;51.180;6.646;2023-08-20T09:33:49;1.05;;;1.00;;
11506;SDS011;5810;51.180;6.646;2023-08-20T09:36:15;0.77;;;0.77;;
11506;SDS011;5810;51.180;6.646;2023-08-20T09:38:41;3.08;;;1.38;;
11506;SDS011;5810;51.180;6.646;2023-08-20T09:41:08;1.00;;;1.00;;
11506;SDS011;5810;51.180;6.646;2023-08-20T09:43:35;1.77;;;1.65;;
11506;SDS011;5810;51.180;6.646;2023-08-20T09:46:03;1.55;;;1.20;;
11506;SDS011;5810;51.180;6.646;2023-08-20T09:48:33;0.90;;;0.90;;
11506;SDS011;5810;51.180;6.646;2023-08-20T09:51:01;0.73;;;0.73;;
11506;SDS011;5810;51.180;6.646;2023-08-20T09:53:33;1.25;;;1.17;;
11506;SDS011;5810;51.180;6.646;2023-08-20T09:56:09;1.50;;;1.35;;
11506;SDS011;5810;51.180;6.646;2023-08-20T09:58:40;1.98;;;1.88;;
11506;SDS011;5810;51.180;6.646;2023-08-20T10:01:06;4.45;;;1.55;;
11506;SDS011;5810;51.180;6.646;2023-08-20T10:03:32;4.72;;;1.50;;
11506;SDS011;5810;51.180;6.646;2023-08-20T10:05:59;1.08;;;1.08;;
11506;SDS011;5810;51.180;6.646;2023-08-20T10:08:26;1.58;;;1.48;;
11506;SDS011;5810;51.180;6.646;2023-08-20T10:10:53;2.33;;;1.73;;
11506;SDS011;5810;51.180;6.646;2023-08-20T10:13:19;1.70;;;1.60;;
11506;SDS011;5810;51.180;6.646;2023-08-20T10:15:45;1.90;;;1.80;;
11506;SDS011;5810;51.180;6.646;2023-08-20T10:18:11;1.83;;;1.55;;
11506;SDS011;5810;51.180;6.646;2023-08-20T10:20:39;1.60;;;1.48;;
11506;SDS011;5810;51.180;6.646;2023-08-20T10:23:05;4.65;;;1.77;;
11506;SDS011;5810;51.180;6.646;2023-08-20T10:25:32;1.40;;;1.30;;
11506;SDS011;5810;51.180;6.646;2023-08-20T10:28:12;1.83;;;1.73;;
11506;SDS011;5810;51.180;6.646;2023-08-20T10:30:39;1.80;;;1.70;;
11506;SDS011;5810;51.180;6.646;2023-08-20T10:33:25;1.30;;;1.30;;
11506;SDS011;5810;51.180;6.646;2023-08-20T10:35:51;1.10;;;1.10;;
11506;SDS011;5810;51.180;6.646;2023-08-20T10:38:18;2.00;;;1.83;;
11506;SDS011;5810;51.180;6.646;2023-08-20T10:40:48;1.30;;;1.20;;
11506;SDS011;5810;51.180;6.646;2023-08-20T10:46:02;3.97;;;2.10;;
11506;SDS011;5810;51.180;6.646;2023-08-20T10:48:29;2.33;;;2.13;;
11506;SDS011;5810;51.180;6.646;2023-08-20T10:50:56;1.77;;;1.67;;
11506;SDS011;5810;51.180;6.646;2023-08-20T10:53:22;3.45;;;1.50;;
11506;SDS011;5810;51.180;6.646;2023-08-20T10:55:48;1.80;;;1.70;;
11506;SDS011;5810;51.180;6.646;2023-08-20T10:58:15;2.13;;;1.67;;
11506;SDS011;5810;51.180;6.646;2023-08-20T11:00:41;1.50;;;1.42;;
11506;SDS011;5810;51.180;6.646;2023-08-20T11:03:08;2.33;;;2.13;;
11506;SDS011;5810;51.180;6.646;2023-08-20T11:05:34;1.55;;;1.45;;
11506;SDS011;5810;51.180;6.646;2023-08-20T11:08:00;5.68;;;1.52;;
11506;SDS011;5810;51.180;6.646;2023-08-20T11:10:28;2.13;;;1.48;;
11506;SDS011;5810;51.180;6.646;2023-08-20T11:12:54;4.10;;;2.63;;
11506;SDS011;5810;51.180;6.646;2023-08-20T11:15:20;4.47;;;2.40;;
11506;SDS011;5810;51.180;6.646;2023-08-20T11:17:47;2.05;;;1.80;;
11506;SDS011;5810;51.180;6.646;2023-08-20T11:20:14;2.22;;;2.05;;
11506;SDS011;5810;51.180;6.646;2023-08-20T11:22:40;2.10;;;2.00;;
11506;SDS011;5810;51.180;6.646;2023-08-20T11:25:10;2.20;;;1.90;;
11506;SDS011;5810;51.180;6.646;2023-08-20T11:27:39;1.95;;;1.85;;
11506;SDS011;5810;51.180;6.646;2023-08-20T11:30:06;2.08;;;1.98;;
11506;SDS011;5810;51.180;6.646;2023-08-20T11:32:32;3.00;;;1.77;;
11506;SDS011;5810;51.180;6.646;2023-08-20T11:34:59;4.20;;;2.20;;
11506;SDS011;5810;51.180;6.646;2023-08-20T11:37:25;1.63;;;1.55;;
11506;SDS011;5810;51.180;6.646;2023-08-20T11:39:52;1.67;;;1.55;;
11506;SDS011;5810;51.180;6.646;2023-08-20T11:42:18;2.45;;;2.20;;
11506;SDS011;5810;51.180;6.646;2023-08-20T11:44:45;1.58;;;1.48;;
11506;SDS011;5810;51.180;6.646;2023-08-20T11:47:15;1.90;;;1.77;;
11506;SDS011;5810;51.180;6.646;2023-08-20T11:49:42;2.45;;;2.25;;
11506;SDS011;5810;51.180;6.646;2023-08-20T11:52:08;2.50;;;2.28;;
11506;SDS011;5810;51.180;6.646;2023-08-20T11:54:34;7.70;;;2.47;;
11506;SDS011;5810;51.180;6.646;2023-08-20T11:57:05;8.93;;;2.15;;
11506;SDS011;5810;51.180;6.646;2023-08-20T11:59:32;2.42;;;2.13;;
11506;SDS011;5810;51.180;6.646;2023-08-20T12:01:59;2.30;;;2.00;;
11506;SDS011;5810;51.180;6.646;2023-08-20T12:04:26;1.75;;;1.65;;
11506;SDS011;5810;51.180;6.646;2023-08-20T12:07:02;2.80;;;1.98;;
11506;SDS011;5810;51.180;6.646;2023-08-20T12:09:32;1.10;;;1.10;;
11506;SDS011;5810;51.180;6.646;2023-08-20T12:11:58;2.33;;;2.13;;
11506;SDS011;5810;51.180;6.646;2023-08-20T12:14:24;2.05;;;1.85;;
11506;SDS011;5810;51.180;6.646;2023-08-20T12:16:51;2.83;;;2.63;;
11506;SDS011;5810;51.180;6.646;2023-08-20T12:19:17;1.92;;;1.83;;
11506;SDS011;5810;51.180;6.646;2023-08-20T12:21:43;2.42;;;2.13;;
11506;SDS011;5810;51.180;6.646;2023-08-20T12:24:09;4.00;;;2.88;;
11506;SDS011;5810;51.180;6.646;2023-08-20T12:26:35;1.83;;;1.73;;
11506;SDS011;5810;51.180;6.646;2023-08-20T12:29:01;2.47;;;2.28;;
11506;SDS011;5810;51.180;6.646;2023-08-20T12:31:27;2.15;;;1.98;;
11506;SDS011;5810;51.180;6.646;2023-08-20T12:33:53;3.60;;;2.22;;
11506;SDS011;5810;51.180;6.646;2023-08-20T12:36:19;3.38;;;2.58;;
11506;SDS011;5810;51.180;6.646;2023-08-20T12:38:45;2.97;;;2.25;;
11506;SDS011;5810;51.180;6.646;2023-08-20T12:41:11;2.63;;;2.42;;
11506;SDS011;5810;51.180;6.646;2023-08-20T12:43:37;2.40;;;2.20;;
11506;SDS011;5810;51.180;6.646;2023-08-20T12:46:04;2.30;;;2.20;;
11506;SDS011;5810;51.180;6.646;2023-08-20T12:48:30;2.30;;;2.13;;
11506;SDS011;5810;51.180;6.646;2023-08-20T12:50:56;2.65;;;2.45;;
11506;SDS011;5810;51.180;6.646;2023-08-20T12:53:22;2.10;;;1.83;;
11506;SDS011;5810;51.180;6.646;2023-08-20T12:55:48;2.85;;;2.15;;
11506;SDS011;5810;51.180;6.646;2023-08-20T12:58:14;2.25;;;2.00;;
11506;SDS011;5810;51.180;6.646;2023-08-20T13:00:40;2.50;;;2.30;;
11506;SDS011;5810;51.180;6.646;2023-08-20T13:03:06;3.03;;;2.30;;
11506;SDS011;5810;51.180;6.646;2023-08-20T13:05:32;2.30;;;2.17;;
11506;SDS011;5810;51.180;6.646;2023-08-20T13:07:58;1.75;;;1.65;;
11506;SDS011;5810;51.180;6.646;2023-08-20T13:10:24;3.42;;;1.85;;
11506;SDS011;5810;51.180;6.646;2023-08-20T13:12:51;2.40;;;2.20;;
11506;SDS011;5810;51.180;6.646;2023-08-20T13:15:19;1.58;;;1.48;;
11506;SDS011;5810;51.180;6.646;2023-08-20T13:17:46;2.08;;;1.92;;
11506;SDS011;5810;51.180;6.646;2023-08-20T13:20:12;1.92;;;1.83;;
11506;SDS011;5810;51.180;6.646;2023-08-20T13:22:39;3.88;;;2.60;;
11506;SDS011;5810;51.180;6.646;2023-08-20T13:25:05;1.88;;;1.77;;
11506;SDS011;5810;51.180;6.646;2023-08-20T13:27:32;2.13;;;1.95;;
11506;SDS011;5810;51.180;6.646;2023-08-20T13:29:58;1.95;;;1.85;;
11506;SDS011;5810;51.180;6.646;2023-08-20T13:32:24;2.20;;;2.08;;
11506;SDS011;5810;51.180;6.646;2023-08-20T13:34:50;2.15;;;2.00;;
11506;SDS011;5810;51.180;6.646;2023-08-20T13:37:16;1.92;;;1.83;;
11506;SDS011;5810;51.180;6.646;2023-08-20T13:39:42;1.55;;;1.48;;
11506;SDS011;5810;51.180;6.646;2023-08-20T13:42:08;1.58;;;1.48;;
11506;SDS011;5810;51.180;6.646;2023-08-20T13:44:34;2.20;;;2.10;;
11506;SDS011;5810;51.180;6.646;2023-08-20T13:47:00;2.17;;;2.08;;
11506;SDS011;5810;51.180;6.646;2023-08-20T13:49:26;2.85;;;2.08;;
11506;SDS011;5810;51.180;6.646;2023-08-20T13:51:52;2.13;;;1.90;;
11506;SDS011;5810;51.180;6.646;2023-08-20T13:54:18;5.85;;;2.15;;
11506;SDS011;5810;51.180;6.646;2023-08-20T13:56:44;2.00;;;1.90;;
11506;SDS011;5810;51.180;6.646;2023-08-20T13:59:10;3.13;;;2.05;;
11506;SDS011;5810;51.180;6.646;2023-08-20T14:01:36;3.05;;;2.13;;
11506;SDS011;5810;51.180;6.646;2023-08-20T14:04:02;1.52;;;1.42;;
11506;SDS011;5810;51.180;6.646;2023-08-20T14:06:29;1.98;;;1.88;;
11506;SDS011;5810;51.180;6.646;2023-08-20T14:08:55;1.70;;;1.60;;
11506;SDS011;5810;51.180;6.646;2023-08-20T14:11:21;1.52;;;1.42;;
11506;SDS011;5810;51.180;6.646;2023-08-20T14:13:47;2.95;;;1.70;;
11506;SDS011;5810;51.180;6.646;2023-08-20T14:16:14;1.60;;;1.50;;
11506;SDS011;5810;51.180;6.646;2023-08-20T14:18:40;4.43;;;1.95;;
11506;SDS011;5810;51.180;6.646;2023-08-20T14:21:06;1.80;;;1.70;;
11506;SDS011;5810;51.180;6.646;2023-08-20T14:23:32;3.00;;;1.70;;
11506;SDS011;5810;51.180;6.646;2023-08-20T14:25:59;3.78;;;2.53;;
11506;SDS011;5810;51.180;6.646;2023-08-20T14:28:25;1.80;;;1.70;;
11506;SDS011;5810;51.180;6.646;2023-08-20T14:30:51;1.73;;;1.63;;
11506;SDS011;5810;51.180;6.646;2023-08-20T14:33:19;1.70;;;1.60;;
11506;SDS011;5810;51.180;6.646;2023-08-20T14:35:46;2.35;;;2.17;;
11506;SDS011;5810;51.180;6.646;2023-08-20T14:38:12;1.35;;;1.33;;
11506;SDS011;5810;51.180;6.646;2023-08-20T14:40:39;7.22;;;1.80;;
11506;SDS011;5810;51.180;6.646;2023-08-20T14:43:06;1.80;;;1.70;;
11506;SDS011;5810;51.180;6.646;2023-08-20T14:45:32;1.92;;;1.83;;
11506;SDS011;5810;51.180;6.646;2023-08-20T14:47:58;2.05;;;1.90;;
11506;SDS011;5810;51.180;6.646;2023-08-20T14:50:24;1.77;;;1.67;;
11506;SDS011;5810;51.180;6.646;2023-08-20T14:52:50;1.70;;;1.60;;
11506;SDS011;5810;51.180;6.646;2023-08-20T14:55:17;1.73;;;1.63;;
11506;SDS011;5810;51.180;6.646;2023-08-20T14:57:44;1.80;;;1.70;;
11506;SDS011;5810;51.180;6.646;2023-08-20T15:00:10;4.47;;;1.60;;
11506;SDS011;5810;51.180;6.646;2023-08-20T15:02:39;5.80;;;1.90;;
11506;SDS011;5810;51.180;6.646;2023-08-20T15:05:05;3.70;;;1.92;;